Time;durP1;ratioP1;P1;durP2;ratioP2;P2;SDS_P1;SDS_P2;PMS_P1;PMS_P2;Temp;Humidity;BMP_temperature;BMP_pressure;BME280_temperature;BME280_humidity;BME280_pressure;Samples;Min_cycle;Max_cycle;Signal;HPM_P1;HPM_P2
2022/06/12 00:02:02;;;;;;;10.23;7.57;;;;;;;18.22;100.00;98852.34;5069652;28;20572;-79
2022/06/12 00:04:28;;;;;;;10.13;7.27;;;;;;;18.22;100.00;98842.00;5069366;28;20472;-79
2022/06/12 00:06:54;;;;;;;11.20;7.10;;;;;;;18.22;100.00;98849.75;5069670;28;20494;-82
2022/06/12 00:09:21;;;;;;;10.97;7.47;;;;;;;18.22;100.00;98852.34;5069641;28;20243;-79
2022/06/12 00:11:47;;;;;;;8.77;6.90;;;;;;;18.25;100.00;98857.19;5069353;28;20716;-79
2022/06/12 00:14:15;;;;;;;8.47;7.00;;;;;;;18.26;100.00;98845.84;5069345;28;20636;-83
2022/06/12 00:16:45;;;;;;;10.10;7.47;;;;;;;18.23;100.00;98848.78;5068150;28;20209;-79
2022/06/12 00:19:13;;;;;;;9.43;7.10;;;;;;;18.21;100.00;98845.56;5069472;28;20236;-79
2022/06/12 00:21:40;;;;;;;9.13;7.50;;;;;;;18.19;100.00;98847.50;5069385;28;20210;-83
2022/06/12 00:24:09;;;;;;;8.50;7.00;;;;;;;18.20;100.00;98846.53;5069166;28;20618;-79
2022/06/12 00:26:37;;;;;;;8.60;7.27;;;;;;;18.23;100.00;98847.97;5069164;28;20216;-83
2022/06/12 00:29:06;;;;;;;9.97;7.70;;;;;;;18.21;100.00;98845.56;5069000;28;20258;-78
2022/06/12 00:31:34;;;;;;;12.47;7.50;;;;;;;18.21;100.00;98850.75;5069184;28;20765;-84
2022/06/12 00:34:01;;;;;;;9.90;7.30;;;;;;;18.18;100.00;98840.72;5068926;28;20211;-78
2022/06/12 00:36:29;;;;;;;9.53;7.93;;;;;;;18.17;100.00;98844.25;5068910;28;20256;-83
2022/06/12 00:38:55;;;;;;;9.03;7.40;;;;;;;18.17;100.00;98844.25;5069100;28;20213;-80
2022/06/12 00:41:22;;;;;;;8.87;7.57;;;;;;;18.15;100.00;98845.41;5068755;28;20687;-84
2022/06/12 00:43:48;;;;;;;10.33;7.63;;;;;;;18.14;100.00;98844.59;5068959;28;20239;-84
2022/06/12 00:46:38;;;;;;;10.23;8.00;;;;;;;18.14;100.00;98849.78;5068716;28;20231;-83
2022/06/12 00:49:09;;;;;;;11.30;7.90;;;;;;;18.13;100.00;98848.16;5068776;28;20255;-83
2022/06/12 00:51:36;;;;;;;11.40;8.00;;;;;;;18.15;100.00;98853.16;5068888;28;20254;-84
2022/06/12 00:54:04;;;;;;;12.17;8.47;;;;;;;18.15;100.00;98856.59;5068935;28;20265;-79
2022/06/12 00:56:33;;;;;;;15.03;8.50;;;;;;;18.17;100.00;98859.78;5068709;28;20231;-83
2022/06/12 00:59:04;;;;;;;11.47;8.07;;;;;;;18.19;100.00;98868.22;5068763;28;20221;-83
2022/06/12 01:01:38;;;;;;;10.53;8.57;;;;;;;18.21;100.00;98868.03;5068551;28;20209;-78
2022/06/12 01:06:52;;;;;;;14.47;8.83;;;;;;;18.23;100.00;98869.47;5068724;28;20239;-76
2022/06/12 01:09:22;;;;;;;12.70;8.97;;;;;;;18.22;100.00;98867.06;5068698;28;20254;-82
2022/06/12 01:11:51;;;;;;;10.97;8.97;;;;;;;18.21;100.00;98863.69;5068690;28;20658;-82
2022/06/12 01:14:21;;;;;;;11.47;8.60;;;;;;;18.18;100.00;98856.25;5068541;28;20239;-77
2022/06/12 01:16:49;;;;;;;13.57;8.03;;;;;;;18.14;100.00;98860.13;5068623;28;20840;-84
2022/06/12 01:19:23;;;;;;;12.27;8.10;;;;;;;18.14;100.00;98849.78;5068780;28;20228;-84
2022/06/12 01:22:21;;;;;;;11.77;8.63;;;;;;;18.10;100.00;98843.31;5068390;28;20220;-84
2022/06/12 01:25:15;;;;;;;13.57;8.57;;;;;;;18.09;100.00;98852.03;5067562;28;20717;-84
2022/06/12 01:28:06;;;;;;;11.87;8.67;;;;;;;18.12;100.00;98851.72;5037222;28;20216;-78
2022/06/12 01:30:37;;;;;;;11.70;8.30;;;;;;;18.13;100.00;98853.34;5069240;28;20741;-78
2022/06/12 01:33:11;;;;;;;13.30;8.70;;;;;;;18.13;100.00;98852.53;5071945;28;20221;-84
2022/06/12 01:35:44;;;;;;;14.07;8.43;;;;;;;18.12;100.00;98845.72;5071754;28;20822;-78
2022/06/12 01:38:17;;;;;;;11.37;8.33;;;;;;;18.12;100.00;98851.72;5071939;28;20258;-84
2022/06/12 01:40:53;;;;;;;12.07;7.93;;;;;;;18.13;100.00;98843.00;5071763;28;20236;-84
2022/06/12 01:43:25;;;;;;;14.10;8.70;;;;;;;18.15;100.00;98846.22;5071886;28;20228;-84
2022/06/12 01:46:02;;;;;;;12.20;8.70;;;;;;;18.17;100.00;98849.44;5071789;28;20231;-84
2022/06/12 01:48:39;;;;;;;13.27;8.80;;;;;;;18.20;100.00;98853.47;5071822;28;20218;-84
2022/06/12 01:51:13;;;;;;;14.40;8.53;;;;;;;18.19;100.00;98857.06;5071377;28;20298;-79
2022/06/12 01:53:55;;;;;;;13.17;8.57;;;;;;;18.20;100.00;98864.63;5071668;28;20222;-78
2022/06/12 01:56:26;;;;;;;12.80;9.30;;;;;;;18.22;100.00;98867.88;5071656;28;20208;-84
2022/06/12 01:59:00;;;;;;;12.37;9.07;;;;;;;18.23;100.00;98866.09;5071341;28;20226;-78
2022/06/12 02:01:33;;;;;;;12.20;9.10;;;;;;;18.16;100.00;98863.38;5071601;28;20213;-83
2022/06/12 02:04:07;;;;;;;12.00;8.80;;;;;;;18.13;100.00;98868.06;5071879;28;20594;-82
2022/06/12 02:06:39;;;;;;;13.47;9.43;;;;;;;18.09;100.00;98880.50;5071181;28;20754;-77
2022/06/12 02:09:12;;;;;;;12.30;8.53;;;;;;;18.11;100.00;98878.56;5071376;28;20236;-83
2022/06/12 02:14:31;;;;;;;15.37;9.47;;;;;;;18.14;100.00;98870.47;5071474;28;20273;-78
2022/06/12 02:17:02;;;;;;;14.50;9.87;;;;;;;18.16;100.00;98873.72;5071304;28;20239;-83
2022/06/12 02:19:33;;;;;;;12.93;9.10;;;;;;;18.13;100.00;98861.09;5071341;28;20243;-84
2022/06/12 02:22:04;;;;;;;14.30;10.43;;;;;;;18.09;100.00;98863.22;5071403;28;20625;-77
2022/06/12 02:24:36;;;;;;;14.53;10.00;;;;;;;18.10;100.00;98858.84;5071074;28;20670;-77
2022/06/12 02:27:07;;;;;;;15.47;10.30;;;;;;;18.13;100.00;98868.88;5071063;28;20218;-83
2022/06/12 02:29:38;;;;;;;16.53;10.77;;;;;;;18.12;100.00;98862.06;5070784;28;20232;-77
2022/06/12 02:32:13;;;;;;;14.13;10.23;;;;;;;18.13;100.00;98858.53;5071191;28;20645;-84
2022/06/12 02:34:43;;;;;;;15.47;10.40;;;;;;;18.16;100.00;98857.38;5071216;28;20243;-78
2022/06/12 02:37:15;;;;;;;16.53;10.50;;;;;;;18.17;100.00;98854.63;5070938;28;20222;-84
2022/06/12 02:39:45;;;;;;;14.67;11.03;;;;;;;18.20;100.00;98854.28;5069735;28;20587;-85
2022/06/12 02:42:16;;;;;;;15.13;10.80;;;;;;;18.20;100.00;98858.66;5071122;28;20211;-85
2022/06/12 02:44:47;;;;;;;14.53;11.20;;;;;;;18.22;100.00;98867.06;5070757;28;20246;-79
2022/06/12 02:47:16;;;;;;;15.33;11.43;;;;;;;18.22;100.00;98870.47;5070833;28;20213;-78
2022/06/12 02:49:46;;;;;;;20.53;12.80;;;;;;;18.20;100.00;98864.63;5071136;28;20239;-83
2022/06/12 02:52:21;;;;;;;15.23;12.33;;;;;;;18.20;100.00;98858.66;5070901;28;20238;-78
2022/06/12 02:54:54;;;;;;;18.13;12.57;;;;;;;18.18;100.00;98866.59;5070800;28;20235;-78
2022/06/12 02:57:30;;;;;;;18.03;12.33;;;;;;;18.18;100.00;98861.44;5070774;28;20266;-78
2022/06/12 03:00:07;;;;;;;19.00;12.57;;;;;;;18.19;100.00;98863.03;5070691;28;20259;-83
2022/06/12 03:02:38;;;;;;;16.10;12.20;;;;;;;18.17;100.00;98859.78;5071041;28;20251;-84
2022/06/12 03:05:15;;;;;;;17.40;12.43;;;;;;;18.16;100.00;98865.94;5070155;28;20240;-84
2022/06/12 03:07:41;;;;;;;16.23;12.80;;;;;;;18.17;100.00;98859.78;5070555;28;20226;-84
2022/06/12 03:10:14;;;;;;;17.80;12.23;;;;;;;18.17;100.00;98875.31;5070254;28;20740;-84
2022/06/12 03:12:40;;;;;;;17.27;12.37;;;;;;;18.16;100.00;98862.56;5070422;28;20211;-79
2022/06/12 03:15:25;;;;;;;16.40;12.03;;;;;;;18.16;100.00;98862.56;5070677;28;20244;-79
2022/06/12 03:17:52;;;;;;;15.23;11.67;;;;;;;18.15;100.00;98856.59;5070114;28;20214;-78
2022/06/12 03:20:18;;;;;;;16.03;11.90;;;;;;;18.16;100.00;98863.38;5070205;28;20244;-79
2022/06/12 03:22:56;;;;;;;18.00;12.47;;;;;;;18.15;100.00;98864.34;5070395;28;20732;-78
2022/06/12 03:25:27;;;;;;;15.27;11.77;;;;;;;18.15;100.00;98859.16;5070141;28;20240;-78
2022/06/12 03:28:03;;;;;;;15.43;11.17;;;;;;;18.14;100.00;98844.59;5069799;28;20203;-78
2022/06/12 03:30:35;;;;;;;16.20;11.37;;;;;;;18.13;100.00;98848.16;5069958;28;20322;-84
2022/06/12 03:33:12;;;;;;;13.07;9.47;;;;;;;18.12;100.00;98850.91;5070218;28;20215;-78
2022/06/12 03:35:48;;;;;;;12.30;9.30;;;;;;;18.06;100.00;98852.38;5070091;28;20236;-83
2022/06/12 03:38:19;;;;;;;13.23;9.70;;;;;;;18.05;100.00;98855.94;5070447;28;20334;-80
2022/06/12 03:40:54;;;;;;;11.23;8.43;;;;;;;18.08;100.00;98850.44;5070197;28;20218;-84
2022/06/12 03:43:29;;;;;;;10.67;7.70;;;;;;;18.07;100.00;98865.16;5069969;28;20211;-78
2022/06/12 03:46:02;;;;;;;10.73;7.57;;;;;;;18.01;100.00;98872.78;5070114;28;20262;-78
2022/06/12 03:48:35;;;;;;;9.43;7.63;;;;;;;17.90;100.00;98873.09;5069782;28;20720;-83
2022/06/12 03:51:09;;;;;;;10.17;7.20;;;;;;;17.88;100.00;98868.06;5069301;28;20235;-78
2022/06/12 03:53:43;;;;;;;10.07;7.00;;;;;;;17.93;100.00;98877.94;5070034;28;20223;-78
2022/06/12 03:59:10;;;;;;;8.27;6.40;;;;;;;17.90;100.00;98873.09;5069896;28;20692;-82
2022/06/12 04:01:36;;;;;;;9.33;6.87;;;;;;;17.91;100.00;98851.44;5069799;28;20219;-81
2022/06/12 04:04:05;;;;;;;8.87;6.70;;;;;;;17.92;100.00;98848.69;5069835;28;20785;-77
2022/06/12 04:06:32;;;;;;;10.27;7.17;;;;;;;17.95;100.00;98848.38;5069328;28;20226;-77
2022/06/12 04:09:04;;;;;;;9.53;6.47;;;;;;;17.94;100.00;98854.50;5069850;28;20659;-78
2022/06/12 04:11:34;;;;;;;9.67;6.37;;;;;;;17.94;100.00;98853.69;5069396;28;20681;-83
2022/06/12 04:14:02;;;;;;;8.00;6.60;;;;;;;17.91;100.00;98861.78;5069351;28;20594;-84
2022/06/12 04:16:33;;;;;;;9.03;7.40;;;;;;;17.90;100.00;98860.16;5069402;28;20218;-84
2022/06/12 04:19:02;;;;;;;9.93;7.57;;;;;;;17.93;100.00;98865.81;5069638;28;20677;-79
2022/06/12 04:21:34;;;;;;;9.60;7.60;;;;;;;17.91;100.00;98859.19;5069288;28;20260;-77
2022/06/12 04:24:09;;;;;;;10.67;7.60;;;;;;;17.93;100.00;98858.06;5069319;28;20624;-83
2022/06/12 04:26:39;;;;;;;10.90;7.43;;;;;;;17.89;100.00;98861.97;5069186;28;20240;-80
2022/06/12 04:29:21;;;;;;;9.07;7.10;;;;;;;17.89;100.00;98874.88;5069246;28;20238;-83
2022/06/12 04:31:49;;;;;;;8.63;6.73;;;;;;;17.92;100.00;98871.97;5069337;28;20207;-77
2022/06/12 04:34:19;;;;;;;8.43;6.47;;;;;;;17.87;100.00;98866.47;5068962;28;20620;-79
2022/06/12 04:36:50;;;;;;;9.87;6.53;;;;;;;17.91;100.00;98861.78;5069258;28;20211;-77
2022/06/12 04:39:20;;;;;;;9.57;7.10;;;;;;;17.95;100.00;98860.47;5068964;28;20748;-83
2022/06/12 04:41:46;;;;;;;10.07;7.00;;;;;;;17.98;100.00;98868.72;5068923;28;20742;-84
2022/06/12 04:44:13;;;;;;;10.20;7.27;;;;;;;18.07;100.00;98875.50;5069482;28;20231;-82
2022/06/12 04:46:42;;;;;;;10.37;7.80;;;;;;;18.13;100.00;98876.63;5068727;28;20250;-80
2022/06/12 04:49:13;;;;;;;10.43;7.70;;;;;;;18.21;100.00;98874.03;5068645;28;20231;-84
2022/06/12 04:51:39;;;;;;;13.37;8.70;;;;;;;18.27;100.00;98875.97;5068929;28;20207;-84
2022/06/12 04:54:06;;;;;;;11.57;8.20;;;;;;;18.36;100.00;98868.19;5068860;28;20243;-84
2022/06/12 04:56:34;;;;;;;10.63;8.70;;;;;;;18.39;100.00;98878.19;5068772;28;20253;-84
2022/06/12 04:59:00;;;;;;;12.47;8.67;;;;;;;18.46;100.00;98879.94;5068690;28;20217;-80
2022/06/12 05:01:27;;;;;;;11.60;8.97;;;;;;;18.54;100.00;98881.72;5068673;28;20220;-84
2022/06/12 05:03:53;;;;;;;19.23;9.17;;;;;;;18.65;100.00;98876.16;5068256;28;20641;-85
2022/06/12 05:06:20;;;;;;;12.13;9.17;;;;;;;18.71;100.00;98878.09;5068650;28;20241;-80
2022/06/12 05:08:48;;;;;;;10.10;8.30;;;;;;;18.75;100.00;98889.75;5068992;28;20644;-84
2022/06/12 05:11:16;;;;;;;11.33;8.53;;;;;;;18.75;100.00;98889.75;5068722;28;20220;-85
2022/06/12 05:13:42;;;;;;;10.27;8.40;;;;;;;18.74;100.00;98895.91;5068721;28;20220;-80
2022/06/12 05:16:12;;;;;;;12.00;8.50;;;;;;;18.79;100.00;98890.19;5068419;28;20304;-80
2022/06/12 05:18:38;;;;;;;10.27;7.83;;;;;;;18.87;100.00;98892.75;5068536;28;20243;-80
2022/06/12 05:21:05;;;;;;;9.77;7.63;;;;;;;18.90;100.00;98896.81;5068501;28;20249;-84
2022/06/12 05:23:31;;;;;;;10.70;7.77;;;;;;;18.94;100.00;98893.72;5068643;28;20228;-85
2022/06/12 05:25:58;;;;;;;11.60;7.20;;;;;;;18.97;100.00;98902.94;5068355;28;20240;-85
2022/06/12 05:28:25;;;;;;;8.50;7.20;;;;;;;18.92;100.00;98902.63;5068274;28;20294;-80
2022/06/12 05:30:51;;;;;;;9.07;6.97;;;;;;;18.89;100.00;98905.56;5068184;28;20229;-85
2022/06/12 05:33:17;;;;;;;8.50;6.70;;;;;;;18.92;100.00;98906.03;5068481;28;20233;-80
2022/06/12 05:35:43;;;;;;;8.80;7.20;;;;;;;18.93;100.00;98906.84;5068272;28;20257;-80
2022/06/12 05:38:11;;;;;;;10.57;7.30;;;;;;;18.95;100.00;98907.47;5068241;28;20209;-79
2022/06/12 05:40:39;;;;;;;9.20;7.03;;;;;;;18.96;100.00;98916.84;5068017;28;20242;-84
2022/06/12 05:43:05;;;;;;;9.80;6.97;;;;;;;18.98;100.00;98914.91;5068049;28;20260;-85
2022/06/12 05:45:33;;;;;;;8.67;7.03;;;;;;;19.02;100.00;98918.78;5068065;28;20233;-83
2022/06/12 05:48:04;;;;;;;9.57;7.40;;;;;;;19.06;100.00;98914.88;5068164;28;20229;-79
2022/06/12 05:50:34;;;;;;;8.93;6.90;;;;;;;19.02;100.00;98918.78;5067977;28;20327;-83
2022/06/12 05:53:01;;;;;;;8.93;7.00;;;;;;;19.00;100.00;98928.50;5068126;28;20213;-83
2022/06/12 05:55:27;;;;;;;11.00;7.80;;;;;;;18.99;100.00;98922.53;5068013;28;20299;-79
2022/06/12 05:57:53;;;;;;;9.80;7.27;;;;;;;18.97;100.00;98914.09;5067908;28;20217;-79
2022/06/12 06:00:23;;;;;;;9.67;7.20;;;;;;;19.03;100.00;98917.81;5067811;28;20237;-83
2022/06/12 06:02:50;;;;;;;9.93;6.50;;;;;;;18.99;100.00;98921.69;5067818;28;20221;-80
2022/06/12 06:05:16;;;;;;;8.67;6.77;;;;;;;19.02;100.00;98918.78;5067890;28;20290;-86
2022/06/12 06:07:43;;;;;;;9.00;6.50;;;;;;;19.05;100.00;98920.22;5067852;28;20216;-80
2022/06/12 06:10:13;;;;;;;8.97;6.60;;;;;;;19.04;100.00;98913.44;5067897;28;20242;-83
2022/06/12 06:12:39;;;;;;;8.93;6.93;;;;;;;19.03;100.00;98917.81;5067897;28;20252;-84
2022/06/12 06:15:07;;;;;;;7.67;6.10;;;;;;;19.05;100.00;98909.84;5070023;28;20241;-81
2022/06/12 06:17:34;;;;;;;10.20;7.07;;;;;;;19.08;100.00;98915.53;5071228;28;20230;-84
2022/06/12 06:20:01;;;;;;;11.00;6.73;;;;;;;19.10;100.00;98912.75;5071114;28;20241;-84
2022/06/12 06:22:27;;;;;;;9.77;6.50;;;;;;;19.15;100.00;98916.44;5071278;28;20275;-85
2022/06/12 06:24:53;;;;;;;9.00;6.70;;;;;;;19.18;100.00;98916.09;5070929;28;20261;-85
2022/06/12 06:27:19;;;;;;;9.20;7.00;;;;;;;19.19;100.00;98917.72;5071106;28;20214;-86
2022/06/12 06:29:46;;;;;;;10.20;7.10;;;;;;;19.16;100.00;98918.06;5070875;28;20242;-80
2022/06/12 06:32:12;;;;;;;11.47;6.73;;;;;;;19.10;100.00;98921.31;5071256;28;20218;-79
2022/06/12 06:34:39;;;;;;;10.33;7.63;;;;;;;19.09;100.00;98922.31;5070844;28;20256;-80
2022/06/12 06:37:08;;;;;;;9.03;7.47;;;;;;;19.07;100.00;98921.66;5070929;28;20599;-85
2022/06/12 06:39:34;;;;;;;10.30;7.53;;;;;;;19.06;100.00;98921.84;5070862;28;20241;-85
2022/06/12 06:42:00;;;;;;;10.00;8.07;;;;;;;19.06;100.00;98921.84;5070936;28;20704;-86
2022/06/12 06:47:11;;;;;;;11.47;8.37;;;;;;;19.04;100.00;98932.38;5070995;28;20218;-79
2022/06/12 06:49:38;;;;;;;9.97;7.97;;;;;;;19.02;100.00;98936.91;5070619;28;20265;-79
2022/06/12 06:52:06;;;;;;;12.23;8.57;;;;;;;18.94;100.00;98939.56;5070769;28;20622;-79
2022/06/12 06:54:32;;;;;;;13.70;9.20;;;;;;;18.96;100.00;98940.97;5070907;28;20609;-79
2022/06/12 06:56:58;;;;;;;11.77;8.60;;;;;;;19.00;100.00;98928.50;5070649;28;20222;-84
2022/06/12 06:59:24;;;;;;;11.23;8.67;;;;;;;18.98;100.00;98927.88;5070714;28;20240;-85
2022/06/12 07:01:52;;;;;;;13.97;9.70;;;;;;;19.03;100.00;98927.38;5070697;28;20348;-85
2022/06/12 07:04:18;;;;;;;12.03;9.43;;;;;;;19.13;100.00;98930.56;5070759;28;20603;-80
2022/06/12 07:06:45;;;;;;;11.83;8.77;;;;;;;19.27;100.00;98929.03;5070446;28;20287;-82
2022/06/12 07:09:12;;;;;;;11.60;9.40;;;;;;;19.30;100.00;98929.50;5070442;28;20248;-84
2022/06/12 07:11:39;;;;;;;12.00;9.70;;;;;;;19.43;100.00;98934.09;5070400;28;20696;-79
2022/06/12 07:14:05;;;;;;;12.20;9.80;;;;;;;19.63;100.00;98930.09;5070336;28;20241;-80
2022/06/12 07:16:33;;;;;;;14.53;10.03;;;;;;;19.73;100.00;98936.88;5070191;28;20207;-84
2022/06/12 07:18:59;;;;;;;13.80;10.30;;;;;;;19.85;100.00;98932.88;5070442;28;20217;-80
2022/06/12 07:21:26;;;;;;;14.00;10.20;;;;;;;19.99;100.00;98939.91;5070186;28;20385;-84
2022/06/12 07:23:52;;;;;;;11.73;9.67;;;;;;;20.11;100.00;98954.09;5070307;28;20224;-80
2022/06/12 07:26:23;;;;;;;13.13;9.73;;;;;;;20.13;100.00;98952.13;5069404;28;20239;-84
2022/06/12 07:28:50;;;;;;;10.53;9.07;;;;;;;20.34;100.00;98953.25;5070178;28;20224;-84
2022/06/12 07:31:17;;;;;;;11.07;8.83;;;;;;;20.49;100.00;98946.25;5070337;28;20233;-84
2022/06/12 07:33:44;;;;;;;10.27;8.47;;;;;;;20.53;100.00;98947.53;5070351;28;20598;-81
2022/06/12 07:36:14;;;;;;;11.57;8.37;;;;;;;20.69;100.00;98948.38;5069933;28;20221;-81
2022/06/12 07:38:42;;;;;;;10.57;7.60;;;;;;;20.79;100.00;98954.09;5070739;28;20239;-80
2022/06/12 07:41:10;;;;;;;10.20;7.53;;;;;;;20.99;100.00;98956.94;5069901;28;20641;-84
2022/06/12 07:43:39;;;;;;;9.47;7.50;;;;;;;20.89;100.00;98952.03;5070062;28;20216;-84
2022/06/12 07:46:09;;;;;;;10.03;6.90;;;;;;;20.94;100.00;98960.09;5069704;28;20256;-83
2022/06/12 07:48:37;;;;;;;7.30;6.47;;;;;;;21.02;100.00;98954.78;5070211;28;20600;-83
2022/06/12 07:51:07;;;;;;;7.27;6.33;;;;;;;21.07;100.00;98956.06;5069886;28;20305;-81
2022/06/12 07:53:34;;;;;;;6.97;5.73;;;;;;;21.16;100.00;98960.16;5069838;28;20244;-81
2022/06/12 07:56:01;;;;;;;7.17;5.97;;;;;;;21.27;100.00;98958.88;5069641;28;20231;-80
2022/06/12 07:58:28;;;;;;;7.67;5.67;;;;;;;21.36;100.00;98963.81;5069609;28;20214;-85
2022/06/12 08:01:05;;;;;;;7.87;6.17;;;;;;;21.41;100.00;98951.09;5069824;28;20252;-81
2022/06/12 08:03:32;;;;;;;6.70;5.97;;;;;;;21.45;100.00;98957.50;5069496;28;20264;-83
2022/06/12 08:05:59;;;;;;;7.93;6.30;;;;;;;21.40;100.00;98951.25;5069410;28;20245;-81
2022/06/12 08:08:26;;;;;;;8.80;6.17;;;;;;;21.40;100.00;98959.84;5069805;28;20245;-82
2022/06/12 08:10:53;;;;;;;6.97;5.73;;;;;;;21.53;100.00;98963.59;5069318;28;20237;-83
2022/06/12 08:13:20;;;;;;;7.40;5.90;;;;;;;21.60;100.00;98969.66;5069455;28;20221;-81
2022/06/12 08:15:49;;;;;;;7.65;5.95;;;;;;;21.64;100.00;98965.69;5069640;28;20237;-83
2022/06/12 08:18:17;;;;;;;7.90;6.05;;;;;;;21.64;100.00;98970.91;5069219;28;20210;-81
2022/06/12 08:20:49;;;;;;;7.20;5.60;;;;;;;21.81;100.00;98969.66;5069435;28;20276;-83
2022/06/12 08:23:29;;;;;;;7.40;6.22;;;;;;;21.86;100.00;98975.13;5069377;28;20665;-81
2022/06/12 08:26:02;;;;;;;7.03;5.90;;;;;;;21.96;100.00;98976.59;5069360;28;20631;-84
2022/06/12 08:28:33;;;;;;;10.15;8.10;;;;;;;21.82;99.62;98976.50;5069341;28;20214;-84
2022/06/12 08:31:01;;;;;;;11.07;8.70;;;;;;;21.90;99.84;98971.19;5068877;28;20237;-81
2022/06/12 08:33:28;;;;;;;12.63;9.23;;;;;;;21.91;99.66;98980.59;5069270;28;20207;-84
2022/06/12 08:35:55;;;;;;;12.23;9.32;;;;;;;22.09;100.00;98972.31;5069124;28;20235;-81
2022/06/12 08:38:21;;;;;;;14.02;9.77;;;;;;;22.14;99.47;98969.19;5068159;28;20214;-83
2022/06/12 08:40:53;;;;;;;11.98;10.32;;;;;;;22.17;98.34;98971.44;5068943;28;20235;-80
2022/06/12 08:43:28;;;;;;;14.60;10.25;;;;;;;22.20;98.56;98981.47;5069080;28;20253;-84
2022/06/12 08:45:59;;;;;;;11.90;10.18;;;;;;;22.21;97.83;98983.06;5068782;28;20727;-83
2022/06/12 08:48:33;;;;;;;12.35;10.80;;;;;;;22.24;98.68;98980.09;5069168;28;20272;-83
2022/06/12 08:51:06;;;;;;;12.75;10.82;;;;;;;22.20;97.99;98971.06;5068947;28;20238;-79
2022/06/12 08:53:38;;;;;;;13.52;10.40;;;;;;;22.24;97.98;98979.28;5068641;28;20222;-80
2022/06/12 08:56:11;;;;;;;13.57;10.57;;;;;;;22.19;98.16;98977.22;5068757;28;20694;-84
2022/06/12 08:58:41;;;;;;;12.98;11.10;;;;;;;22.16;99.05;98980.19;5069190;28;20345;-80
2022/06/12 09:01:08;;;;;;;12.65;10.93;;;;;;;22.22;99.25;98989.88;5068515;28;20242;-80
2022/06/12 09:03:39;;;;;;;13.65;11.02;;;;;;;22.32;99.99;98979.94;5068954;28;20222;-79
2022/06/12 09:06:14;;;;;;;13.30;11.40;;;;;;;22.41;100.00;98979.81;5068637;28;20630;-86
2022/06/12 09:08:48;;;;;;;14.15;11.63;;;;;;;22.47;100.00;98979.06;5068798;28;20332;-86
2022/06/12 09:11:18;;;;;;;16.25;12.80;;;;;;;22.43;99.45;98991.66;5068768;28;20214;-87
2022/06/12 09:13:53;;;;;;;14.27;12.52;;;;;;;22.42;98.92;98978.81;5068426;28;20210;-80
2022/06/12 09:16:28;;;;;;;14.70;12.50;;;;;;;22.50;99.60;98976.06;5068799;28;20218;-85
2022/06/12 09:19:02;;;;;;;17.02;13.10;;;;;;;22.63;98.90;98976.16;5068835;28;20217;-83
2022/06/12 09:21:35;;;;;;;14.93;12.85;;;;;;;22.75;99.00;98974.63;5068575;28;20674;-85
2022/06/12 09:24:11;;;;;;;15.88;13.43;;;;;;;22.79;97.84;98983.66;5068415;28;20218;-80
2022/06/12 09:27:02;;;;;;;18.98;15.10;;;;;;;22.75;94.60;98985.06;5068235;28;20240;-85
2022/06/12 09:29:39;;;;;;;18.80;14.45;;;;;;;22.85;96.49;98983.91;5068434;28;20271;-86
2022/06/12 09:32:17;;;;;;;18.63;14.88;;;;;;;22.72;96.06;98985.44;5068318;28;20210;-85
2022/06/12 09:34:53;;;;;;;20.23;15.40;;;;;;;22.69;96.87;98985.81;5068356;28;20253;-80
2022/06/12 09:40:27;;;;;;;21.20;16.77;;;;;;;22.59;96.71;98980.13;5068422;28;20233;-84
2022/06/12 09:42:59;;;;;;;24.80;16.52;;;;;;;22.58;97.14;98979.34;5068354;28;20704;-86
2022/06/12 09:45:30;;;;;;;19.17;16.13;;;;;;;22.65;98.04;98984.56;5068178;28;20260;-80
2022/06/12 09:48:11;;;;;;;19.83;15.50;;;;;;;22.69;96.36;98985.00;5068288;28;20602;-82
2022/06/12 09:50:47;;;;;;;18.38;16.10;;;;;;;22.85;96.70;98983.91;5070763;28;20244;-80
2022/06/12 09:53:34;;;;;;;21.13;16.95;;;;;;;22.90;95.99;98981.53;5071805;28;20206;-80
2022/06/12 09:56:05;;;;;;;23.98;18.20;;;;;;;22.79;95.72;98975.84;5071399;28;20333;-86
2022/06/12 09:58:36;;;;;;;23.00;17.83;;;;;;;22.73;95.44;98966.19;5071503;28;20210;-86
2022/06/12 10:01:07;;;;;;;22.55;18.92;;;;;;;22.78;95.34;98974.25;5071545;28;20693;-80
2022/06/12 10:03:39;;;;;;;22.15;17.73;;;;;;;22.84;93.83;98967.44;5071673;28;20700;-82
2022/06/12 10:06:20;;;;;;;23.33;18.08;;;;;;;22.95;95.61;98947.84;5071518;28;20235;-85
2022/06/12 10:08:52;;;;;;;23.20;19.65;;;;;;;23.17;96.21;98951.16;5071542;28;20217;-80
2022/06/12 10:11:23;;;;;;;24.42;19.10;;;;;;;23.52;95.03;98951.06;5071574;28;20713;-85
2022/06/12 10:13:55;;;;;;;22.25;19.17;;;;;;;23.89;94.27;98952.34;5071492;28;20639;-85
2022/06/12 10:16:25;;;;;;;23.20;18.25;;;;;;;24.18;91.97;98953.75;5071417;28;20218;-84
2022/06/12 10:19:00;;;;;;;18.77;16.35;;;;;;;24.26;91.51;98944.91;5071223;28;20206;-86
2022/06/12 10:21:28;;;;;;;21.30;16.45;;;;;;;24.53;92.80;98945.69;5071268;28;20241;-85
2022/06/12 10:23:55;;;;;;;15.13;13.43;;;;;;;24.69;85.56;98960.13;5071164;28;20210;-86
2022/06/12 10:26:23;;;;;;;17.67;14.07;;;;;;;25.04;88.05;98948.34;5070967;28;20235;-86
2022/06/12 10:29:02;;;;;;;14.02;12.23;;;;;;;25.27;81.10;98941.81;5071184;28;20218;-85
2022/06/12 10:31:28;;;;;;;14.27;12.73;;;;;;;25.55;82.08;98938.06;5071361;28;20660;-85
2022/06/12 10:34:05;;;;;;;16.88;12.60;;;;;;;25.72;79.38;98936.53;5071108;28;20267;-80
2022/06/12 10:36:33;;;;;;;18.08;13.98;;;;;;;26.08;83.09;98932.44;5070927;28;20206;-80
2022/06/12 10:39:06;;;;;;;18.75;14.80;;;;;;;26.42;83.39;98912.75;5070758;28;20215;-80
2022/06/12 10:41:33;;;;;;;15.30;13.45;;;;;;;26.54;83.04;98925.97;5070870;28;20677;-79
2022/06/12 10:43:59;;;;;;;16.65;12.80;;;;;;;26.51;77.07;98926.41;5070883;28;20211;-79
2022/06/12 10:46:28;;;;;;;13.45;11.63;;;;;;;26.68;78.19;98924.81;5070780;28;20233;-80
2022/06/12 10:48:59;;;;;;;13.57;12.13;;;;;;;26.87;76.45;98910.63;5070561;28;20210;-85
2022/06/12 10:51:29;;;;;;;13.85;12.27;;;;;;;27.06;77.23;98913.25;5071020;28;20199;-85
2022/06/12 10:53:59;;;;;;;15.25;13.38;;;;;;;27.25;78.05;98925.31;5070706;28;20305;-86
2022/06/12 10:56:30;;;;;;;15.20;13.60;;;;;;;27.39;75.72;98922.50;5070668;28;20222;-86
2022/06/12 10:59:19;;;;;;;14.10;12.52;;;;;;;27.57;71.89;98919.81;5070630;28;20723;-81
2022/06/12 11:02:01;;;;;;;15.05;13.02;;;;;;;27.73;77.19;98913.91;5069723;28;20677;-80
2022/06/12 11:04:37;;;;;;;14.70;12.35;;;;;;;27.90;73.86;98902.75;5070653;28;20234;-85
2022/06/12 11:07:18;;;;;;;16.63;12.32;;;;;;;28.06;71.91;98896.81;5070370;28;20316;-80
2022/06/12 11:10:03;;;;;;;13.98;12.55;;;;;;;28.13;70.09;98892.25;5070544;28;20265;-80
2022/06/12 11:12:45;;;;;;;14.57;13.05;;;;;;;28.37;73.62;98886.97;5070601;28;20203;-81
2022/06/12 11:15:28;;;;;;;15.20;12.32;;;;;;;28.47;69.89;98895.06;5070558;28;20720;-82
2022/06/12 11:18:02;;;;;;;14.57;11.73;;;;;;;28.39;71.61;98895.41;5070380;28;20214;-82
2022/06/12 11:20:40;;;;;;;11.48;10.23;;;;;;;28.37;67.95;98897.47;5070364;28;20326;-86
2022/06/12 11:23:28;;;;;;;12.38;11.07;;;;;;;28.26;67.70;98898.28;5070129;28;20348;-80
2022/06/12 11:26:12;;;;;;;12.88;10.23;;;;;;;28.38;68.97;98886.72;5070160;28;20231;-79
2022/06/12 11:28:51;;;;;;;11.20;10.00;;;;;;;28.54;69.71;98892.34;5070455;28;20216;-80
2022/06/12 11:31:30;;;;;;;14.32;9.63;;;;;;;28.78;68.81;98901.75;5070269;28;20241;-80
2022/06/12 11:34:17;;;;;;;10.02;8.80;;;;;;;29.05;68.20;98907.28;5070352;28;20210;-80
2022/06/12 11:36:53;;;;;;;8.18;7.25;;;;;;;28.93;60.84;98917.03;5070156;28;20210;-87
2022/06/12 11:39:40;;;;;;;7.95;6.63;;;;;;;28.74;60.20;98912.97;5070234;28;20238;-86
2022/06/12 11:42:18;;;;;;;7.85;7.07;;;;;;;28.65;63.88;98905.47;5070088;28;20298;-80
2022/06/12 11:44:56;;;;;;;10.60;7.50;;;;;;;28.55;63.87;98899.97;5070036;28;20324;-86
2022/06/12 11:47:34;;;;;;;8.77;7.40;;;;;;;28.55;67.43;98899.97;5069657;28;20317;-86
2022/06/12 11:50:16;;;;;;;7.65;6.93;;;;;;;28.21;64.34;98902.38;5069734;28;20732;-80
2022/06/12 11:52:57;;;;;;;10.30;7.07;;;;;;;27.75;63.05;98901.34;5070223;28;20388;-81